Terminal Aerodrome Forecast
Issued by NWS

Home | Current Version | Previous Version | Graphics & Text | Print | Product List | Glossary On
Versions: 1 2 3 4 5 6 7 8 9 10 11 12 13 14 15 16 17 18
714
FTUS43 KOAX 271120
TAFCDR
TAF
KCDR 271120Z 2712/2812 03010KT P6SM BKN080
     FM271900 09012G22KT P6SM VCTS BKN080CB
      TEMPO 2721/2724 3SM TSRA BKN035CB
     FM280100 15008KT P6SM VCTS BKN050CB
      TEMPO 2801/2803 VRB20G35KT 4SM TSRA BKN040CB=

USA.gov is the U.S. government's official web portal to all federal, state and local government web resources and services.